EST,Max TemperatureF,Mean TemperatureF,Min TemperatureF,Max Dew PointF,MeanDew PointF,Min DewpointF,Max Humidity, Mean Humidity, Min Humidity, Max Sea Level PressureIn, Mean Sea Level PressureIn, Min Sea Level PressureIn, Max VisibilityMiles, Mean VisibilityMiles, Min VisibilityMiles, Max Wind SpeedMPH, Mean Wind SpeedMPH, Max Gust SpeedMPH,PrecipitationIn, CloudCover, Events, WindDirDegrees
2011-2-1,59,54,48,59,51,48,100,100,94,30.17,30.07,29.88,7,2,0,15,7,21,0.00,8,,88
2011-2-2,62,55,48,63,51,36,100,80,51,30.22,30.03,29.86,10,9,3,13,7,18,0.00,4,,276
2011-2-3,46,42,39,36,29,25,66,60,53,30.37,30.31,30.22,10,10,10,10,6,,0.00,7,,2
2011-2-4,41,39,37,41,39,37,100,100,93,30.33,30.17,30.02,10,4,1,10,7,17,0.00,8,,47
2011-2-5,51,46,42,48,45,43,100,96,82,29.95,29.88,29.83,10,6,0,14,4,20,0.00,6,,234
2011-2-6,59,44,30,41,35,30,100,78,36,30.08,30.02,29.96,10,10,10,8,2,,0.00,0,,274
2011-2-7,48,39,30,48,39,30,100,100,93,30.06,29.94,29.79,10,8,3,10,1,9,0.00,4,,220
2011-2-8,51,43,35,39,29,25,76,57,35,30.23,30.13,29.95,10,10,10,18,10,31,0.00,3,,307
2011-2-9,51,40,28,36,29,23,86,61,43,30.26,30.16,30.00,10,10,10,9,3,,0.00,2,,56
2011-2-10,46,40,33,37,35,32,100,83,61,30.16,30.07,29.98,10,10,5,9,5,,0.00,7,,22
2011-2-11,51,40,28,37,31,28,100,79,44,30.21,30.16,30.12,10,8,3,9,1,16,0.00,2,,309
2011-2-12,59,44,28,32,22,16,93,48,29,30.36,30.29,30.23,10,10,10,12,5,17,0.00,0,,293
2011-2-13,64,45,26,32,30,27,100,60,26,30.36,30.29,30.22,10,10,10,9,2,,0.00,0,,253
2011-2-14,69,50,32,41,34,28,93,53,33,30.22,30.15,30.05,10,10,10,20,5,25,0.00,0,,252
2011-2-15,66,50,33,39,33,30,100,55,26,30.34,30.25,30.16,10,10,10,14,3,18,0.00,0,,73
2011-2-16,66,52,39,52,43,36,100,74,56,30.37,30.30,30.22,10,10,10,7,2,,0.00,4,,44
2011-2-17,73,58,44,59,52,45,100,85,47,30.29,30.23,30.18,10,6,0,9,1,,0.00,5,,190
2011-2-18,75,58,41,55,50,41,100,75,44,30.26,30.19,30.13,10,7,0,14,3,20,0.00,0,,248
2011-2-19,78,63,48,61,53,48,100,72,39,30.25,30.18,30.12,10,8,2,8,3,,0.00,1,,348
2011-2-20,73,62,51,52,40,30,94,47,26,30.24,30.16,30.06,10,10,10,14,4,20,0.00,6,,110
2011-2-21,75,60,46,59,54,46,100,76,50,30.03,29.96,29.86,10,9,3,17,6,23,0.00,2,,224
2011-2-22,78,70,62,63,59,54,100,71,47,30.00,29.93,29.87,10,10,10,16,9,23,0.00,4,,253
2011-2-23,68,54,39,46,42,36,100,65,40,30.27,30.17,30.09,10,10,7,13,4,17,0.00,2,,78
2011-2-24,71,56,42,55,50,43,100,85,57,30.22,30.14,29.98,10,7,0,12,5,,0.00,4,,151
2011-2-25,75,63,51,63,56,48,100,78,41,30.03,29.93,29.83,10,9,4,16,8,24,0.00,3,,236
2011-2-26,75,57,39,48,44,39,100,67,29,30.15,30.07,30.01,10,10,10,12,1,,0.00,0,,249
2011-2-27,82,62,42,61,52,43,100,73,42,30.12,30.05,29.99,10,10,7,13,2,20,0.00,1,,220
2011-2-28,80,66,53,66,59,54,100,76,51,30.05,29.96,29.82,10,8,0,18,6,26,0.00,3,,204